createdAt,value
2024-05-09T00:00:39.588Z,54.6
2024-05-09T00:02:23.199Z,54.6
2024-05-09T00:04:06.883Z,54.6
2024-05-09T00:05:50.660Z,54.6
2024-05-09T00:07:34.232Z,54.6
2024-05-09T00:09:17.966Z,54.6
2024-05-09T00:11:01.674Z,54.6
2024-05-09T00:12:45.326Z,54.6
2024-05-09T00:14:29.033Z,54.6
2024-05-09T00:16:12.934Z,54.7
2024-05-09T00:17:56.481Z,54.6
2024-05-09T00:19:40.181Z,54.6
2024-05-09T00:21:23.852Z,54.6
2024-05-09T00:23:07.546Z,54.6
2024-05-09T00:24:51.362Z,54.7
2024-05-09T00:26:34.963Z,54.7
2024-05-09T00:28:18.645Z,54.7
2024-05-09T00:30:02.469Z,54.6
2024-05-09T00:31:47.141Z,54.7
2024-05-09T00:35:13.463Z,54.7
2024-05-09T00:36:57.167Z,54.7
2024-05-09T00:38:40.903Z,54.7
2024-05-09T00:40:24.573Z,54.7
2024-05-09T00:42:08.272Z,54.7
2024-05-09T00:43:51.980Z,54.7
2024-05-09T00:45:35.676Z,54.7
2024-05-09T00:47:19.379Z,54.7
2024-05-09T00:49:03.081Z,54.7
2024-05-09T00:50:46.783Z,54.7
2024-05-09T00:52:30.551Z,54.7
2024-05-09T00:54:14.197Z,54.7
2024-05-09T00:55:57.902Z,54.7
2024-05-09T00:57:41.602Z,54.7
2024-05-09T00:59:25.300Z,54.7
2024-05-09T01:01:09.015Z,54.7
2024-05-09T01:02:52.768Z,54.7
2024-05-09T01:04:36.417Z,54.7
2024-05-09T01:06:20.117Z,54.8
2024-05-09T01:08:03.842Z,54.7
2024-05-09T01:09:47.525Z,54.7
2024-05-09T01:11:31.217Z,54.8
2024-05-09T01:13:14.921Z,54.8
2024-05-09T01:14:58.643Z,54.8
2024-05-09T01:16:42.440Z,54.8
2024-05-09T01:18:26.033Z,54.8
2024-05-09T01:20:09.731Z,54.8
2024-05-09T01:21:53.432Z,54.8
2024-05-09T01:23:37.182Z,54.8
2024-05-09T01:25:20.849Z,54.8
2024-05-09T01:27:04.540Z,54.8
2024-05-09T01:28:48.261Z,54.8
2024-05-09T01:30:31.944Z,54.9
2024-05-09T01:32:15.652Z,54.9
2024-05-09T01:33:59.345Z,54.9
2024-05-09T01:35:43.126Z,54.9
2024-05-09T01:37:26.767Z,54.9
2024-05-09T01:39:10.463Z,54.9
2024-05-09T01:40:54.159Z,54.9
2024-05-09T01:42:37.876Z,54.9
2024-05-09T01:46:05.284Z,54.9
2024-05-09T01:47:48.975Z,54.9
2024-05-09T01:49:32.676Z,54.9
2024-05-09T01:51:16.401Z,54.9
2024-05-09T01:53:00.081Z,54.9
2024-05-09T01:56:27.503Z,54.9
2024-05-09T01:58:11.193Z,54.9
2024-05-09T01:59:54.892Z,54.9
2024-05-09T02:01:38.610Z,54.9
2024-05-09T02:03:22.299Z,54.9
2024-05-09T02:05:06.017Z,54.9
2024-05-09T02:06:49.741Z,54.9
2024-05-09T02:08:33.419Z,54.9
2024-05-09T02:10:17.111Z,54.9
2024-05-09T02:12:00.816Z,54.9
2024-05-09T02:13:44.525Z,54.9
2024-05-09T02:15:28.233Z,55
2024-05-09T02:17:11.967Z,55
2024-05-09T02:18:55.626Z,54.9
2024-05-09T02:20:39.416Z,54.9
2024-05-09T02:22:23.030Z,55
2024-05-09T02:24:06.746Z,54.9
2024-05-09T02:25:50.425Z,55
2024-05-09T02:27:34.140Z,55
2024-05-09T02:29:17.841Z,55
2024-05-09T02:31:01.532Z,55
2024-05-09T02:32:45.237Z,55
2024-05-09T02:34:29.127Z,55
2024-05-09T02:36:12.663Z,55
2024-05-09T02:37:56.345Z,55
2024-05-09T02:39:40.060Z,55
2024-05-09T02:41:23.747Z,55
2024-05-09T02:43:07.462Z,55
2024-05-09T02:44:51.159Z,55
2024-05-09T02:46:34.851Z,55
2024-05-09T02:48:18.560Z,55
2024-05-09T02:50:02.275Z,55
2024-05-09T02:51:45.968Z,55
2024-05-09T02:53:29.673Z,55
2024-05-09T02:55:13.356Z,55
2024-05-09T02:56:57.080Z,55
2024-05-09T02:58:40.778Z,55
2024-05-09T03:00:24.473Z,55
2024-05-09T03:02:08.183Z,55
2024-05-09T03:03:51.882Z,55
2024-05-09T03:05:35.580Z,55
2024-05-09T03:07:19.279Z,55
2024-05-09T03:09:03.163Z,55.1
2024-05-09T03:10:46.688Z,55.1
2024-05-09T03:12:30.379Z,55.1
2024-05-09T03:14:14.093Z,55.1
2024-05-09T03:15:57.799Z,55.1
2024-05-09T03:17:41.487Z,55
2024-05-09T03:19:25.192Z,55
2024-05-09T03:21:08.888Z,55.1
2024-05-09T03:22:52.600Z,55.1
2024-05-09T03:24:36.310Z,55.1
2024-05-09T03:26:20.013Z,55.1
2024-05-09T03:28:03.718Z,55.1
2024-05-09T03:29:47.423Z,55.1
2024-05-09T03:31:31.151Z,55.1
2024-05-09T03:33:14.829Z,55.1
2024-05-09T03:34:58.514Z,55.1
2024-05-09T03:36:42.226Z,55.1
2024-05-09T03:38:25.928Z,55.1
2024-05-09T03:40:09.619Z,55.1
2024-05-09T03:41:53.326Z,55.1
2024-05-09T03:43:37.025Z,55.1
2024-05-09T03:45:20.731Z,55.1
2024-05-09T03:47:04.431Z,55.2
2024-05-09T03:48:48.135Z,55.2
2024-05-09T03:50:31.835Z,55.1
2024-05-09T03:52:15.540Z,55.1
2024-05-09T03:53:59.241Z,55.1
2024-05-09T03:55:42.957Z,55.1
2024-05-09T03:57:26.650Z,55.1
2024-05-09T03:59:10.356Z,55.2
2024-05-09T04:00:54.070Z,55.1
2024-05-09T04:02:37.749Z,55.2
2024-05-09T04:04:21.453Z,55.2
2024-05-09T04:06:05.161Z,55.2
2024-05-09T04:07:48.855Z,55.2
2024-05-09T04:09:32.569Z,55.2
2024-05-09T04:11:16.264Z,55.1
2024-05-09T04:12:59.969Z,55.1
2024-05-09T04:14:43.674Z,55.2
2024-05-09T04:16:27.372Z,55.2
2024-05-09T04:19:54.793Z,55.1
2024-05-09T04:21:38.474Z,55.1
2024-05-09T04:23:22.182Z,55.1
2024-05-09T04:25:05.896Z,55.1
2024-05-09T04:26:49.582Z,55.1
2024-05-09T04:28:33.292Z,55.1
2024-05-09T04:30:16.990Z,55.1
2024-05-09T04:32:00.724Z,55.1
2024-05-09T04:33:44.401Z,55.1
2024-05-09T04:35:28.093Z,55.1
2024-05-09T04:37:11.797Z,55.1
2024-05-09T04:38:55.506Z,55.1
2024-05-09T04:40:39.202Z,55.1
2024-05-09T04:42:23.009Z,55.2
2024-05-09T04:44:06.619Z,55.4
2024-05-09T04:45:50.366Z,55.3
2024-05-09T04:47:34.018Z,55.1
2024-05-09T04:49:17.720Z,55.2
2024-05-09T04:51:01.422Z,55.2
2024-05-09T04:52:45.141Z,55.2
2024-05-09T04:54:28.829Z,55.2
2024-05-09T04:56:12.529Z,55.2
2024-05-09T04:57:56.219Z,55.2
2024-05-09T04:59:39.938Z,55.2
2024-05-09T05:01:23.789Z,55.2
2024-05-09T05:03:07.328Z,55.2
2024-05-09T05:04:51.034Z,55.2
2024-05-09T05:06:34.762Z,55.2
2024-05-09T05:08:18.489Z,55.2
2024-05-09T05:10:02.144Z,55.2
2024-05-09T05:11:45.846Z,55.2
2024-05-09T05:13:29.850Z,55.2
2024-05-09T05:15:13.255Z,55.2
2024-05-09T05:16:56.962Z,55.2
2024-05-09T05:18:40.684Z,55.2
2024-05-09T05:20:24.359Z,55.2
2024-05-09T05:22:08.061Z,55.2
2024-05-09T05:23:51.804Z,55.2
2024-05-09T05:25:35.485Z,55.1
2024-05-09T05:27:19.162Z,55.1
2024-05-09T05:29:02.881Z,55.1
2024-05-09T05:30:46.611Z,55.2
2024-05-09T05:32:30.275Z,55.1
2024-05-09T05:34:13.988Z,55.1
2024-05-09T05:35:57.677Z,55.1
2024-05-09T05:37:41.401Z,55.1
2024-05-09T05:39:25.099Z,55.1
2024-05-09T05:41:08.788Z,55.1
2024-05-09T05:42:52.488Z,55.1
2024-05-09T05:44:36.190Z,55.1
2024-05-09T05:46:19.893Z,55.1
2024-05-09T05:48:03.603Z,55.1
2024-05-09T05:49:47.326Z,55.1
2024-05-09T05:51:31.015Z,55.1
2024-05-09T05:53:14.704Z,55.1
2024-05-09T05:54:58.410Z,55.1
2024-05-09T05:56:42.114Z,55.1
2024-05-09T05:58:25.801Z,55.1
2024-05-09T06:00:09.514Z,55.1
2024-05-09T06:01:53.215Z,55
2024-05-09T06:03:36.915Z,55
2024-05-09T06:05:20.619Z,55
2024-05-09T06:07:04.326Z,55.2
2024-05-09T06:08:48.189Z,54.9
2024-05-09T06:10:31.726Z,54.8
2024-05-09T06:12:15.422Z,54.9
2024-05-09T06:13:59.163Z,54.9
2024-05-09T06:15:42.828Z,54.9
2024-05-09T06:17:26.525Z,54.9
2024-05-09T06:19:10.249Z,54.9
2024-05-09T06:20:54.024Z,55
2024-05-09T06:22:37.641Z,55.2
2024-05-09T06:24:21.340Z,55.8
2024-05-09T06:26:05.037Z,55.7
2024-05-09T06:27:48.739Z,55.7
2024-05-09T06:29:32.432Z,55.6
2024-05-09T06:31:16.140Z,55.7
2024-05-09T06:32:59.856Z,56.2
2024-05-09T06:34:43.552Z,56.5
2024-05-09T06:36:27.406Z,56.4
2024-05-09T06:38:10.966Z,56.5
2024-05-09T06:39:54.651Z,57.3
2024-05-09T06:41:38.473Z,58
2024-05-09T06:43:22.053Z,57.9
2024-05-09T06:45:05.765Z,58.1
2024-05-09T06:46:49.461Z,57.9
2024-05-09T06:48:33.343Z,58
2024-05-09T06:50:16.877Z,57
2024-05-09T06:52:00.578Z,56.7
2024-05-09T06:53:44.398Z,56.7
2024-05-09T06:55:28.032Z,56.7
2024-05-09T06:57:11.814Z,56.7
2024-05-09T06:58:55.399Z,56.8
2024-05-09T07:00:39.152Z,56.7
2024-05-09T07:02:22.949Z,56.7
2024-05-09T07:04:06.500Z,56.8
2024-05-09T07:05:50.196Z,56.8
2024-05-09T07:07:33.964Z,56.8
2024-05-09T07:09:17.693Z,56.8
2024-05-09T07:11:01.308Z,56.7
2024-05-09T07:12:45.069Z,56.3
2024-05-09T07:14:28.712Z,56
2024-05-09T07:16:12.492Z,55.9
2024-05-09T07:17:56.130Z,55.6
2024-05-09T07:19:39.865Z,55.4
2024-05-09T07:21:23.540Z,55.3
2024-05-09T07:23:07.299Z,55.3
2024-05-09T07:24:50.926Z,55.3
2024-05-09T07:26:34.629Z,55.3
2024-05-09T07:28:18.336Z,55.2
2024-05-09T07:30:02.148Z,55.1
2024-05-09T07:31:45.878Z,55.2
2024-05-09T07:33:29.515Z,55.1
2024-05-09T07:35:13.139Z,55.1
2024-05-09T07:36:56.844Z,55.2
2024-05-09T07:38:40.552Z,55.2
2024-05-09T07:40:24.249Z,55.3
2024-05-09T07:42:07.959Z,55.3
2024-05-09T07:43:51.729Z,55.3
2024-05-09T07:45:35.365Z,55.3
2024-05-09T07:47:19.080Z,55.3
2024-05-09T07:49:02.768Z,55.3
2024-05-09T07:50:46.466Z,55.3
2024-05-09T07:52:30.167Z,55.3
2024-05-09T07:54:13.873Z,55.4
2024-05-09T07:55:57.684Z,55.4
2024-05-09T07:57:41.271Z,55.4
2024-05-09T07:59:24.980Z,55.4
2024-05-09T08:01:08.683Z,55.3
2024-05-09T08:02:52.387Z,55.4
2024-05-09T08:04:36.893Z,55.4
2024-05-09T08:06:19.789Z,55.4
2024-05-09T08:08:03.492Z,55.4
2024-05-09T08:09:47.213Z,55.3
2024-05-09T08:11:30.892Z,55.3
2024-05-09T08:13:14.599Z,55.2
2024-05-09T08:14:58.290Z,55.3
2024-05-09T08:16:41.998Z,55.2
2024-05-09T08:18:25.775Z,55.2
2024-05-09T08:20:09.398Z,55.1
2024-05-09T08:21:53.098Z,55.1
2024-05-09T08:23:36.812Z,55.1
2024-05-09T08:25:20.509Z,55.1
2024-05-09T08:27:04.209Z,55.1
2024-05-09T08:28:47.928Z,55.1
2024-05-09T08:30:31.610Z,55.3
2024-05-09T08:32:15.323Z,55.1
2024-05-09T08:33:59.011Z,55.2
2024-05-09T08:35:42.729Z,55.2
2024-05-09T08:37:26.439Z,55
2024-05-09T08:39:10.123Z,54.7
2024-05-09T08:40:53.962Z,54.4
2024-05-09T08:42:37.553Z,54
2024-05-09T08:44:21.486Z,53.7
2024-05-09T08:46:05.088Z,53.5
2024-05-09T08:47:48.636Z,53.3
2024-05-09T08:49:32.462Z,53.1
2024-05-09T08:51:16.157Z,52.9
2024-05-09T08:52:59.742Z,52.8
2024-05-09T08:54:43.456Z,52.6
2024-05-09T08:56:27.183Z,52.4
2024-05-09T08:58:10.854Z,52.4
2024-05-09T08:59:54.584Z,52
2024-05-09T09:01:38.427Z,51.9
2024-05-09T09:03:22.047Z,51.8
2024-05-09T09:05:05.669Z,51.9
2024-05-09T09:06:49.391Z,51.8
2024-05-09T09:08:33.085Z,51.8
2024-05-09T09:10:16.772Z,51.8
2024-05-09T09:12:00.544Z,51.7
2024-05-09T09:13:44.203Z,51.7
2024-05-09T09:15:27.877Z,51.8
2024-05-09T09:17:11.580Z,51.9
2024-05-09T09:18:55.282Z,52
2024-05-09T09:20:38.990Z,52
2024-05-09T09:22:22.700Z,52
2024-05-09T09:24:06.390Z,52.1
2024-05-09T09:25:50.097Z,52.1
2024-05-09T09:27:33.813Z,52.1
2024-05-09T09:29:17.497Z,52.1
2024-05-09T09:31:01.206Z,52.1
2024-05-09T09:32:44.983Z,52.1
2024-05-09T09:34:28.601Z,52.2
2024-05-09T09:36:12.310Z,52.2
2024-05-09T09:37:56.098Z,52.3
2024-05-09T09:39:39.721Z,52.3
2024-05-09T09:41:23.418Z,52.3
2024-05-09T09:43:07.118Z,52.3
2024-05-09T09:44:50.826Z,52.4
2024-05-09T09:46:34.577Z,52.4
2024-05-09T09:48:18.242Z,52.4
2024-05-09T09:50:01.936Z,52.4
2024-05-09T09:51:45.620Z,52.4
2024-05-09T09:53:29.344Z,52.5
2024-05-09T09:55:13.038Z,52.5
2024-05-09T09:56:56.739Z,52.6
2024-05-09T09:58:40.455Z,52.5
2024-05-09T10:00:24.168Z,52.6
2024-05-09T10:02:07.837Z,52.6
2024-05-09T10:03:51.553Z,52.6
2024-05-09T10:05:35.342Z,52.6
2024-05-09T10:07:19.124Z,52.6
2024-05-09T10:09:02.672Z,52.6
2024-05-09T10:10:46.354Z,52.6
2024-05-09T10:12:30.074Z,52.6
2024-05-09T10:14:13.792Z,52.6
2024-05-09T10:15:57.486Z,52.6
2024-05-09T10:17:41.185Z,52.6
2024-05-09T10:19:24.865Z,52.6
2024-05-09T10:21:08.621Z,52.7
2024-05-09T10:22:52.284Z,52.7
2024-05-09T10:24:35.980Z,52.7
2024-05-09T10:26:19.716Z,52.7
2024-05-09T10:28:03.436Z,52.7
2024-05-09T10:29:47.080Z,52.7
2024-05-09T10:31:30.864Z,52.7
2024-05-09T10:33:14.488Z,52.7
2024-05-09T10:34:58.349Z,52.7
2024-05-09T10:36:41.916Z,52.7
2024-05-09T10:38:25.584Z,52.7
2024-05-09T10:40:09.324Z,52.7
2024-05-09T10:41:53.050Z,52.2
2024-05-09T10:43:36.758Z,51.8
2024-05-09T10:45:20.430Z,52.1
2024-05-09T10:47:04.105Z,52.5
2024-05-09T10:48:47.847Z,52.5
2024-05-09T10:50:31.518Z,52.5
2024-05-09T10:52:15.213Z,52.3
2024-05-09T10:53:59.132Z,51.9
2024-05-09T10:55:42.635Z,52.2
2024-05-09T10:57:26.365Z,52.1
2024-05-09T10:59:10.048Z,51.9
2024-05-09T11:00:53.732Z,52.1
2024-05-09T11:02:37.428Z,52.2
2024-05-09T11:04:21.168Z,52.2
2024-05-09T11:06:04.941Z,52.2
2024-05-09T11:07:48.530Z,52.2
2024-05-09T11:11:15.946Z,52.2
2024-05-09T11:12:59.639Z,52.2
2024-05-09T11:14:43.534Z,52.2
2024-05-09T11:16:27.074Z,52.2
2024-05-09T11:18:10.751Z,52.2
2024-05-09T11:19:54.527Z,52.1
2024-05-09T11:21:38.188Z,52.2
2024-05-09T11:25:05.563Z,52.5
2024-05-09T11:26:49.295Z,52.5
2024-05-09T11:28:32.981Z,52.3
2024-05-09T11:30:16.683Z,52.4
2024-05-09T11:32:00.379Z,52.4
2024-05-09T11:33:44.095Z,52.5
2024-05-09T11:35:27.775Z,52.4
2024-05-09T11:37:11.513Z,52.4
2024-05-09T11:38:55.227Z,52.4
2024-05-09T11:40:38.884Z,52.2
2024-05-09T11:42:22.572Z,51.9
2024-05-09T11:44:06.296Z,50.2
2024-05-09T11:45:50.085Z,50
2024-05-09T11:47:33.689Z,49.2
2024-05-09T11:49:17.406Z,48.8
2024-05-09T11:51:02.008Z,48.1
2024-05-09T11:52:44.786Z,48.3
2024-05-09T11:54:28.519Z,47.1
2024-05-09T11:56:12.213Z,47.2
2024-05-09T11:57:56.063Z,48.3
2024-05-09T11:59:39.618Z,48.1
2024-05-09T12:01:23.305Z,48.2
2024-05-09T12:03:07.091Z,48.4
2024-05-09T12:04:50.737Z,48.6
2024-05-09T12:06:34.409Z,48.8
2024-05-09T12:08:18.120Z,48.8
2024-05-09T12:10:01.853Z,48.9
2024-05-09T12:11:45.525Z,48.9
2024-05-09T12:13:29.228Z,49
2024-05-09T12:15:12.923Z,49.1
2024-05-09T12:16:56.631Z,49.2
2024-05-09T12:18:40.328Z,49.2
2024-05-09T12:20:24.031Z,49.3
2024-05-09T12:22:07.732Z,49.3
2024-05-09T12:23:51.441Z,49.3
2024-05-09T12:25:36.104Z,49.3
2024-05-09T12:27:18.845Z,49.4
2024-05-09T12:29:02.563Z,49.4
2024-05-09T12:30:46.258Z,49.5
2024-05-09T12:32:29.951Z,49.5
2024-05-09T12:34:13.686Z,49.5
2024-05-09T12:35:57.453Z,49.5
2024-05-09T12:37:41.049Z,49.6
2024-05-09T12:39:24.792Z,49.7
2024-05-09T12:41:08.488Z,49.7
2024-05-09T12:42:52.181Z,49.8
2024-05-09T12:44:35.870Z,49.8
2024-05-09T12:46:19.570Z,49.9
2024-05-09T12:48:03.274Z,49.9
2024-05-09T12:49:46.980Z,49.9
2024-05-09T12:51:30.662Z,50
2024-05-09T12:53:14.367Z,50.1
2024-05-09T12:54:58.075Z,50
2024-05-09T12:56:41.865Z,50.1
2024-05-09T12:58:25.486Z,50.1
2024-05-09T13:01:52.884Z,50.2
2024-05-09T13:03:36.705Z,50.3
2024-05-09T13:05:20.291Z,50.3
2024-05-09T13:07:03.995Z,50.4
2024-05-09T13:08:47.731Z,50.4
2024-05-09T13:10:31.590Z,50.4
2024-05-09T13:12:15.147Z,50.5
2024-05-09T13:13:58.796Z,50.5
2024-05-09T13:15:42.554Z,50.6
2024-05-09T13:17:26.200Z,50.6
2024-05-09T13:19:09.919Z,50.6
2024-05-09T13:20:53.610Z,50.7
2024-05-09T13:22:37.323Z,50.7
2024-05-09T13:24:21.224Z,50.7
2024-05-09T13:26:04.727Z,50.7
2024-05-09T13:27:48.420Z,50.8
2024-05-09T13:29:32.121Z,50.8
2024-05-09T13:31:15.877Z,50.9
2024-05-09T13:32:59.528Z,50.9
2024-05-09T13:34:43.227Z,51
2024-05-09T13:36:27.034Z,51
2024-05-09T13:38:10.700Z,51.1
2024-05-09T13:39:54.339Z,51.1
2024-05-09T13:41:38.040Z,51.1
2024-05-09T13:43:21.763Z,51.2
2024-05-09T13:45:05.450Z,51.3
2024-05-09T13:48:33.135Z,51.3
2024-05-09T13:50:16.568Z,51.3
2024-05-09T13:52:00.341Z,51.3
2024-05-09T13:53:44.042Z,51.3
2024-05-09T13:55:27.671Z,51.3
2024-05-09T13:57:11.368Z,51.3
2024-05-09T13:58:55.141Z,51.4
2024-05-09T14:00:38.779Z,51.3
2024-05-09T14:02:22.478Z,51.4
2024-05-09T14:04:06.269Z,51.4
2024-05-09T14:05:49.989Z,51.4
2024-05-09T14:07:33.614Z,51.4
2024-05-09T14:09:17.358Z,51.5
2024-05-09T14:11:01.006Z,51.5
2024-05-09T14:12:44.714Z,51.5
2024-05-09T14:14:28.400Z,51.4
2024-05-09T14:16:12.148Z,51.4
2024-05-09T14:17:55.803Z,51.4
2024-05-09T14:19:39.497Z,51.4
2024-05-09T14:21:23.214Z,51.5
2024-05-09T14:24:50.596Z,51.5
2024-05-09T14:26:34.319Z,51.5
2024-05-09T14:28:18.094Z,51.6
2024-05-09T14:30:01.719Z,51.5
2024-05-09T14:31:45.475Z,51.4
2024-05-09T14:33:29.151Z,51.4
2024-05-09T14:35:12.824Z,51.4
2024-05-09T14:36:56.653Z,51.4
2024-05-09T14:38:40.338Z,51.3
2024-05-09T14:40:23.942Z,51.3
2024-05-09T14:42:07.666Z,51.3
2024-05-09T14:43:51.406Z,51.4
2024-05-09T14:45:35.047Z,51.4
2024-05-09T14:47:18.855Z,51.4
2024-05-09T14:49:02.451Z,51.4
2024-05-09T14:50:46.219Z,51.4
2024-05-09T14:52:29.847Z,51.4
2024-05-09T14:54:13.624Z,51.4
2024-05-09T14:55:57.360Z,51.5
2024-05-09T14:57:40.971Z,51.5
2024-05-09T14:59:24.693Z,51.5
2024-05-09T15:01:08.446Z,51.6
2024-05-09T15:02:52.055Z,51.5
2024-05-09T15:04:35.826Z,51.5
2024-05-09T15:06:19.525Z,51.5
2024-05-09T15:08:03.376Z,51.5
2024-05-09T15:09:46.864Z,51.5
2024-05-09T15:11:30.591Z,51.4
2024-05-09T15:13:14.291Z,51.4
2024-05-09T15:14:58.106Z,51.3
2024-05-09T15:16:41.690Z,51.2
2024-05-09T15:18:25.421Z,51.2
2024-05-09T15:20:09.091Z,51.2
2024-05-09T15:21:52.795Z,51.2
2024-05-09T15:23:36.548Z,51.1
2024-05-09T15:25:20.206Z,51.1
2024-05-09T15:27:03.914Z,51.1
2024-05-09T15:28:47.607Z,51
2024-05-09T15:30:31.318Z,51
2024-05-09T15:32:15.002Z,51
2024-05-09T15:33:58.828Z,51
2024-05-09T15:35:42.410Z,51
2024-05-09T15:37:27.050Z,51
2024-05-09T15:39:09.829Z,51
2024-05-09T15:40:53.527Z,51.1
2024-05-09T15:42:37.226Z,51.1
2024-05-09T15:44:20.936Z,51.1
2024-05-09T15:46:04.640Z,51.2
2024-05-09T15:47:48.322Z,51.2
2024-05-09T15:49:32.031Z,51.2
2024-05-09T15:51:15.786Z,51.3
2024-05-09T15:52:59.429Z,51.3
2024-05-09T15:54:43.135Z,51.4
2024-05-09T15:56:26.841Z,51.3
2024-05-09T15:58:10.576Z,51.1
2024-05-09T15:59:54.244Z,50.9
2024-05-09T16:01:38.164Z,50.6
2024-05-09T16:03:21.753Z,50.4
2024-05-09T16:05:05.360Z,50.3
2024-05-09T16:06:49.090Z,50.2
2024-05-09T16:08:32.871Z,50.2
2024-05-09T16:10:16.468Z,50.1
2024-05-09T16:12:00.930Z,50.1
2024-05-09T16:13:43.906Z,50
2024-05-09T16:15:27.576Z,50
2024-05-09T16:17:11.279Z,50
2024-05-09T16:18:54.972Z,50
2024-05-09T16:20:38.851Z,49.9
2024-05-09T16:22:22.430Z,49.9
2024-05-09T16:24:06.164Z,49.9
2024-05-09T16:25:49.805Z,49.9
2024-05-09T16:27:33.653Z,49.9
2024-05-09T16:29:17.181Z,49.8
2024-05-09T16:31:00.949Z,49.9
2024-05-09T16:32:44.618Z,49.9
2024-05-09T16:34:28.316Z,49.9
2024-05-09T16:36:12.124Z,49.9
2024-05-09T16:37:55.851Z,49.9
2024-05-09T16:39:39.408Z,49.9
2024-05-09T16:41:23.091Z,49.9
2024-05-09T16:43:06.802Z,50
2024-05-09T16:44:50.549Z,50
2024-05-09T16:46:34.331Z,50
2024-05-09T16:48:17.930Z,49.9
2024-05-09T16:50:01.615Z,49.6
2024-05-09T16:51:45.312Z,49.5
2024-05-09T16:53:29.025Z,49.3
2024-05-09T16:55:12.709Z,49.3
2024-05-09T16:56:56.423Z,49.2
2024-05-09T16:58:40.115Z,49
2024-05-09T17:00:23.836Z,48.8
2024-05-09T17:02:07.561Z,48.6
2024-05-09T17:03:51.227Z,48.2
2024-05-09T17:05:34.927Z,48.1
2024-05-09T17:07:18.643Z,48.1
2024-05-09T17:09:02.348Z,48
2024-05-09T17:10:46.050Z,47.9
2024-05-09T17:12:29.922Z,47.9
2024-05-09T17:14:13.524Z,48
2024-05-09T17:15:57.232Z,48
2024-05-09T17:17:40.900Z,47.8
2024-05-09T17:19:24.570Z,47.7
2024-05-09T17:21:08.265Z,47.6
2024-05-09T17:22:51.962Z,47.7
2024-05-09T17:24:35.685Z,47.7
2024-05-09T17:26:19.375Z,47.6
2024-05-09T17:28:03.062Z,47.5
2024-05-09T17:29:46.774Z,47.7
2024-05-09T17:31:30.470Z,47.5
2024-05-09T17:33:14.256Z,47.5
2024-05-09T17:34:57.881Z,47.3
2024-05-09T17:36:41.658Z,47.3
2024-05-09T17:38:25.291Z,47.3
2024-05-09T17:40:08.989Z,47.3
2024-05-09T17:41:52.689Z,47.1
2024-05-09T17:43:36.438Z,46.9
2024-05-09T17:45:20.143Z,46.8
2024-05-09T17:47:03.931Z,46.6
2024-05-09T17:48:47.495Z,46.6
2024-05-09T17:50:31.204Z,46.4
2024-05-09T17:52:14.907Z,46.2
2024-05-09T17:53:58.784Z,46.1
2024-05-09T17:55:42.395Z,46
2024-05-09T17:57:26.100Z,46
2024-05-09T17:59:09.716Z,45.9
2024-05-09T18:00:53.479Z,45.9
2024-05-09T18:02:37.116Z,45.9
2024-05-09T18:04:20.821Z,45.8
2024-05-09T18:06:04.568Z,45.9
2024-05-09T18:07:48.230Z,45.9
2024-05-09T18:09:32.065Z,45.8
2024-05-09T18:11:15.736Z,45.8
2024-05-09T18:12:59.371Z,45.8
2024-05-09T18:14:43.046Z,45.8
2024-05-09T18:16:26.736Z,46
2024-05-09T18:18:10.424Z,46
2024-05-09T18:19:54.132Z,45.9
2024-05-09T18:21:37.860Z,45.8
2024-05-09T18:23:21.542Z,45.9
2024-05-09T18:25:05.254Z,45.9
2024-05-09T18:26:49.037Z,46
2024-05-09T18:28:32.774Z,46.1
2024-05-09T18:30:16.350Z,46.3
2024-05-09T18:33:43.764Z,46.5
2024-05-09T18:35:27.453Z,46.5
2024-05-09T18:37:11.187Z,46.7
2024-05-09T18:38:54.858Z,46.8
2024-05-09T18:40:38.665Z,46.9
2024-05-09T18:42:22.263Z,47
2024-05-09T18:44:05.997Z,47.1
2024-05-09T18:45:49.733Z,47.2
2024-05-09T18:47:33.385Z,47.3
2024-05-09T18:49:17.158Z,47.4
2024-05-09T18:51:00.784Z,47.5
2024-05-09T18:52:44.516Z,47.6
2024-05-09T18:54:28.205Z,47.6
2024-05-09T18:56:11.888Z,47.7
2024-05-09T18:57:55.588Z,47.7
2024-05-09T18:59:39.337Z,47.7
2024-05-09T19:01:23.011Z,47.8
2024-05-09T19:03:06.705Z,47.8
2024-05-09T19:04:50.402Z,47.9
2024-05-09T19:06:34.196Z,47.9
2024-05-09T19:08:17.929Z,48
2024-05-09T19:10:01.609Z,48
2024-05-09T19:11:45.213Z,48.1
2024-05-09T19:13:29.146Z,48.1
2024-05-09T19:15:12.670Z,48.1
2024-05-09T19:16:56.370Z,48.2
2024-05-09T19:18:40.021Z,48.2
2024-05-09T19:20:23.725Z,48.2
2024-05-09T19:22:07.440Z,48.3
2024-05-09T19:23:52.351Z,48.3
2024-05-09T19:25:34.989Z,48.4
2024-05-09T19:27:18.552Z,48.4
2024-05-09T19:29:02.231Z,48.5
2024-05-09T19:30:45.951Z,48.5
2024-05-09T19:32:29.640Z,48.5
2024-05-09T19:34:13.334Z,48.6
2024-05-09T19:35:57.099Z,48.6
2024-05-09T19:37:40.746Z,48.7
2024-05-09T19:39:24.445Z,48.8
2024-05-09T19:41:08.145Z,49.1
2024-05-09T19:42:51.851Z,49.5
2024-05-09T19:44:35.575Z,49.6
2024-05-09T19:46:19.260Z,49.6
2024-05-09T19:48:02.970Z,49.6
2024-05-09T19:49:46.662Z,49.6
2024-05-09T19:51:30.369Z,49.6
2024-05-09T19:53:14.117Z,49.6
2024-05-09T19:54:57.821Z,49.6
2024-05-09T19:56:41.470Z,49.7
2024-05-09T19:58:25.838Z,49.8
2024-05-09T20:00:08.882Z,49.7
2024-05-09T20:01:52.576Z,49.8
2024-05-09T20:03:36.292Z,49.8
2024-05-09T20:05:20.014Z,49.9
2024-05-09T20:07:03.685Z,49.9
2024-05-09T20:08:47.500Z,49.9
2024-05-09T20:10:31.088Z,50
2024-05-09T20:12:14.806Z,50
2024-05-09T20:13:58.801Z,50
2024-05-09T20:15:42.220Z,50.1
2024-05-09T20:17:25.887Z,50.1
2024-05-09T20:19:09.601Z,50.1
2024-05-09T20:20:53.304Z,50.2
2024-05-09T20:22:37.014Z,50.2
2024-05-09T20:24:20.693Z,50.2
2024-05-09T20:26:04.399Z,50.3
2024-05-09T20:27:48.110Z,50.3
2024-05-09T20:29:31.816Z,50.3
2024-05-09T20:31:15.520Z,50.3
2024-05-09T20:32:59.220Z,50.3
2024-05-09T20:34:42.917Z,50.4
2024-05-09T20:36:26.624Z,50.4
2024-05-09T20:38:10.454Z,50.4
2024-05-09T20:39:54.027Z,50.4
2024-05-09T20:41:37.961Z,50.5
2024-05-09T20:43:21.572Z,50.5
2024-05-09T20:45:05.133Z,50.5
2024-05-09T20:46:48.845Z,50.5
2024-05-09T20:48:32.545Z,50.5
2024-05-09T20:50:16.236Z,50.6
2024-05-09T20:51:59.941Z,50.6
2024-05-09T20:53:43.675Z,50.6
2024-05-09T20:55:27.352Z,50.6
2024-05-09T20:57:11.057Z,50.6
2024-05-09T20:58:54.759Z,50.6
2024-05-09T21:00:38.455Z,50.6
2024-05-09T21:02:22.168Z,50.7
2024-05-09T21:04:05.867Z,50.7
2024-05-09T21:05:49.791Z,50.7
2024-05-09T21:07:33.596Z,50.7
2024-05-09T21:09:17.183Z,50.7
2024-05-09T21:11:00.987Z,50.8
2024-05-09T21:12:44.718Z,50.8
2024-05-09T21:14:28.072Z,50.8
2024-05-09T21:16:11.895Z,50.8
2024-05-09T21:17:55.484Z,50.8
2024-05-09T21:19:39.361Z,50.8
2024-05-09T21:21:23.163Z,50.8
2024-05-09T21:23:06.831Z,50.8
2024-05-09T21:24:50.522Z,50.9
2024-05-09T21:26:34.027Z,50.9
2024-05-09T21:28:17.932Z,50.9
2024-05-09T21:30:01.404Z,50.9
2024-05-09T21:31:45.090Z,50.9
2024-05-09T21:33:28.851Z,50.9
2024-05-09T21:35:12.534Z,51
2024-05-09T21:36:56.371Z,51
2024-05-09T21:38:39.916Z,51
2024-05-09T21:40:23.613Z,51
2024-05-09T21:42:07.426Z,51
2024-05-09T21:43:51.088Z,51
2024-05-09T21:45:34.818Z,51
2024-05-09T21:47:18.430Z,51
2024-05-09T21:49:02.135Z,51.1
2024-05-09T21:50:45.952Z,51.1
2024-05-09T21:52:29.536Z,51.1
2024-05-09T21:54:13.323Z,51.1
2024-05-09T21:55:56.939Z,51.1
2024-05-09T21:57:40.649Z,51.1
2024-05-09T21:59:24.357Z,51.1
2024-05-09T22:01:08.045Z,51.1
2024-05-09T22:02:51.789Z,51.1
2024-05-09T22:04:35.506Z,51.2
2024-05-09T22:06:19.147Z,51.1
2024-05-09T22:08:02.949Z,51.2
2024-05-09T22:09:46.549Z,51.2
2024-05-09T22:11:30.364Z,51.2
2024-05-09T22:14:57.735Z,51.2
2024-05-09T22:16:41.388Z,51.2
2024-05-09T22:18:25.198Z,51.2
2024-05-09T22:20:08.826Z,51.2
2024-05-09T22:21:52.523Z,51.3
2024-05-09T22:23:36.259Z,51.3
2024-05-09T22:25:19.879Z,51.3
2024-05-09T22:27:03.576Z,51.3
2024-05-09T22:28:47.331Z,51.3
2024-05-09T22:30:30.986Z,51.3
2024-05-09T22:32:14.685Z,51.3
2024-05-09T22:33:58.580Z,51.3
2024-05-09T22:35:42.478Z,51.3
2024-05-09T22:37:25.910Z,51.4
2024-05-09T22:39:09.546Z,51.4
2024-05-09T22:40:53.251Z,51.4
2024-05-09T22:42:36.964Z,51.4
2024-05-09T22:44:20.585Z,51.4
2024-05-09T22:46:04.302Z,51.4
2024-05-09T22:47:48.025Z,51.4
2024-05-09T22:49:31.816Z,51.4
2024-05-09T22:51:15.560Z,51.4
2024-05-09T22:52:59.290Z,51.4
2024-05-09T22:54:43.002Z,51.5
2024-05-09T22:56:26.665Z,51.4
2024-05-09T22:58:10.419Z,51.5
2024-05-09T22:59:54.096Z,51.5
2024-05-09T23:01:37.732Z,51.4
2024-05-09T23:03:21.432Z,51.5
2024-05-09T23:05:05.019Z,51.5
2024-05-09T23:06:48.731Z,51.5
2024-05-09T23:08:32.635Z,51.5
2024-05-09T23:11:59.845Z,51.5
2024-05-09T23:13:43.615Z,51.5
2024-05-09T23:15:27.434Z,51.5
2024-05-09T23:17:10.986Z,51.5
2024-05-09T23:18:54.643Z,51.5
2024-05-09T23:20:38.362Z,51.6
2024-05-09T23:22:22.175Z,51.6
2024-05-09T23:24:05.793Z,51.6
2024-05-09T23:25:49.498Z,51.6
2024-05-09T23:27:33.154Z,51.6
2024-05-09T23:29:16.894Z,51.6
2024-05-09T23:31:00.850Z,51.6